createdAt,value
2017-07-08T00:00:54.595Z,0
2017-07-08T00:02:10.019Z,0
2017-07-08T00:03:22.726Z,0
2017-07-08T00:04:37.114Z,0
2017-07-08T00:05:52.526Z,0
2017-07-08T00:07:08.170Z,0
2017-07-08T00:08:23.638Z,0
2017-07-08T00:09:39.336Z,0
2017-07-08T00:10:55.015Z,0
2017-07-08T00:12:10.453Z,0
2017-07-08T00:14:55.229Z,0
2017-07-08T00:16:10.644Z,0
2017-07-08T00:17:26.229Z,0
2017-07-08T00:18:41.720Z,0
2017-07-08T00:19:57.349Z,0
2017-07-08T00:21:12.885Z,0
2017-07-08T00:22:28.353Z,0
2017-07-08T00:23:43.925Z,0
2017-07-08T00:24:59.665Z,0
2017-07-08T00:26:15.135Z,0
2017-07-08T00:27:29.237Z,0
2017-07-08T00:28:44.907Z,0
2017-07-08T00:30:31.493Z,0
2017-07-08T00:31:46.933Z,0
2017-07-08T00:33:02.459Z,0
2017-07-08T00:34:17.926Z,0
2017-07-08T00:35:33.583Z,0
2017-07-08T00:36:47.831Z,0
2017-07-08T00:38:03.275Z,0
2017-07-08T00:39:18.762Z,0
2017-07-08T00:40:34.559Z,0
2017-07-08T00:41:49.965Z,0
2017-07-08T00:43:05.444Z,0
2017-07-08T00:44:20.888Z,0
2017-07-08T00:45:36.586Z,0
2017-07-08T00:46:52.042Z,0
2017-07-08T00:48:06.062Z,0
2017-07-08T00:49:21.649Z,0
2017-07-08T00:50:37.318Z,0
2017-07-08T00:51:52.785Z,0
2017-07-08T00:53:08.384Z,0
2017-07-08T00:54:23.820Z,0
2017-07-08T00:55:39.546Z,0
2017-07-08T00:56:55.099Z,0
2017-07-08T00:58:10.528Z,0
2017-07-08T00:59:25.973Z,0
2017-07-08T01:00:41.877Z,0
2017-07-08T01:01:57.342Z,0
2017-07-08T01:03:12.812Z,0
2017-07-08T01:04:28.239Z,0
2017-07-08T01:05:43.936Z,0
2017-07-08T01:06:59.405Z,0
2017-07-08T01:08:14.822Z,0
2017-07-08T01:09:30.304Z,0
2017-07-08T01:10:45.985Z,0
2017-07-08T01:12:01.392Z,0
2017-07-08T01:13:16.875Z,0
2017-07-08T01:14:32.352Z,0
2017-07-08T01:15:48.052Z,0
2017-07-08T01:17:02.208Z,0
2017-07-08T01:18:17.458Z,0
2017-07-08T01:19:32.886Z,0
2017-07-08T01:20:48.542Z,0
2017-07-08T01:22:04.002Z,0
2017-07-08T01:23:19.408Z,0
2017-07-08T01:24:34.873Z,0
2017-07-08T01:25:50.796Z,0
2017-07-08T01:27:06.189Z,0
2017-07-08T01:28:20.342Z,0
2017-07-08T01:29:34.533Z,0
2017-07-08T01:30:50.228Z,0
2017-07-08T01:32:05.682Z,0
2017-07-08T01:33:21.344Z,0
2017-07-08T01:34:36.787Z,0
2017-07-08T01:35:52.503Z,0
2017-07-08T01:37:07.591Z,0
2017-07-08T01:38:21.711Z,0
2017-07-08T01:39:36.844Z,0
2017-07-08T01:40:52.546Z,0
2017-07-08T01:42:08.060Z,0
2017-07-08T01:43:23.471Z,0
2017-07-08T01:45:09.610Z,0
2017-07-08T01:46:25.338Z,0
2017-07-08T01:47:40.763Z,0
2017-07-08T01:48:56.563Z,0
2017-07-08T01:50:12.021Z,0
2017-07-08T01:51:27.699Z,0
2017-07-08T01:52:43.153Z,0
2017-07-08T01:53:57.454Z,0
2017-07-08T01:55:12.493Z,0
2017-07-08T01:56:28.191Z,0
2017-07-08T01:57:43.701Z,0
2017-07-08T01:58:59.150Z,0
2017-07-08T02:00:14.574Z,0
2017-07-08T02:01:30.246Z,0
2017-07-08T02:02:45.711Z,0
2017-07-08T02:04:01.216Z,0
2017-07-08T02:05:16.642Z,0
2017-07-08T02:06:31.897Z,0
2017-07-08T02:07:47.547Z,0
2017-07-08T02:09:03.115Z,0
2017-07-08T02:10:18.587Z,0
2017-07-08T02:11:34.216Z,0
2017-07-08T02:12:49.347Z,0
2017-07-08T02:14:04.836Z,0
2017-07-08T02:15:33.855Z,0
2017-07-08T02:16:49.753Z,0
2017-07-08T02:18:05.353Z,0
2017-07-08T02:19:20.764Z,0
2017-07-08T02:21:07.112Z,0
2017-07-08T02:22:53.736Z,0
2017-07-08T02:24:09.180Z,4
2017-07-08T02:25:24.582Z,4
2017-07-08T02:26:40.229Z,4
2017-07-08T02:27:55.933Z,4
2017-07-08T02:29:11.568Z,0
2017-07-08T02:30:26.997Z,0
2017-07-08T02:31:42.394Z,4
2017-07-08T02:32:58.351Z,4
2017-07-08T02:34:13.733Z,4
2017-07-08T02:35:27.882Z,4
2017-07-08T02:36:43.510Z,4
2017-07-08T02:37:59.199Z,4
2017-07-08T02:39:13.262Z,8
2017-07-08T02:40:28.685Z,4
2017-07-08T02:41:44.414Z,8
2017-07-08T02:43:00.205Z,8
2017-07-08T02:44:15.278Z,12
2017-07-08T02:45:30.699Z,12
2017-07-08T02:46:46.088Z,16
2017-07-08T02:48:00.455Z,20
2017-07-08T02:49:15.900Z,24
2017-07-08T02:50:31.346Z,32
2017-07-08T02:51:45.622Z,32
2017-07-08T02:52:59.957Z,40
2017-07-08T02:54:14.128Z,48
2017-07-08T02:55:29.583Z,56
2017-07-08T02:56:45.043Z,64
2017-07-08T02:58:00.729Z,72
2017-07-08T02:59:16.187Z,84
2017-07-08T03:00:30.264Z,88
2017-07-08T03:01:45.685Z,96
2017-07-08T03:03:01.353Z,108
2017-07-08T03:04:15.466Z,116
2017-07-08T03:05:29.848Z,132
2017-07-08T03:06:45.503Z,148
2017-07-08T03:08:00.864Z,164
2017-07-08T03:09:14.922Z,176
2017-07-08T03:10:30.414Z,192
2017-07-08T03:11:45.913Z,208
2017-07-08T03:13:01.599Z,224
2017-07-08T03:14:17.021Z,236
2017-07-08T03:15:31.180Z,252
2017-07-08T03:16:46.618Z,264
2017-07-08T03:18:00.875Z,280
2017-07-08T03:19:15.036Z,300
2017-07-08T03:20:30.453Z,320
2017-07-08T03:21:45.906Z,348
2017-07-08T03:23:01.569Z,372
2017-07-08T03:24:17.014Z,388
2017-07-08T03:25:32.613Z,408
2017-07-08T03:26:48.011Z,448
2017-07-08T03:28:03.676Z,488
2017-07-08T03:29:19.316Z,528
2017-07-08T03:30:33.403Z,572
2017-07-08T03:31:48.954Z,628
2017-07-08T03:33:04.661Z,696
2017-07-08T03:34:20.140Z,808
2017-07-08T03:35:35.581Z,952
2017-07-08T03:36:51.006Z,1100
2017-07-08T03:38:06.797Z,1236
2017-07-08T03:39:22.230Z,1332
2017-07-08T03:40:37.626Z,1420
2017-07-08T03:41:53.090Z,1508
2017-07-08T03:43:08.776Z,1600
2017-07-08T03:44:24.238Z,1680
2017-07-08T03:45:39.859Z,1744
2017-07-08T03:46:55.333Z,1812
2017-07-08T03:48:11.027Z,1872
2017-07-08T03:49:26.474Z,1868
2017-07-08T03:50:41.935Z,1832
2017-07-08T03:51:57.354Z,1800
2017-07-08T03:53:13.011Z,1796
2017-07-08T03:54:28.633Z,1848
2017-07-08T03:55:44.092Z,1936
2017-07-08T03:56:59.552Z,2044
2017-07-08T03:58:15.257Z,2172
2017-07-08T03:59:30.647Z,2364
2017-07-08T04:00:46.115Z,2600
2017-07-08T04:02:01.517Z,2800
2017-07-08T04:03:17.206Z,2900
2017-07-08T04:04:32.618Z,2780
2017-07-08T04:05:48.099Z,2576
2017-07-08T04:07:03.479Z,2508
2017-07-08T04:08:17.861Z,2556
2017-07-08T04:09:33.302Z,2592
2017-07-08T04:10:47.519Z,2636
2017-07-08T04:12:02.950Z,2700
2017-07-08T04:13:18.645Z,2764
2017-07-08T04:14:32.814Z,2824
2017-07-08T04:15:48.442Z,2856
2017-07-08T04:17:17.430Z,2808
2017-07-08T04:18:33.112Z,2736
2017-07-08T04:19:48.578Z,2596
2017-07-08T04:21:04.047Z,2476
2017-07-08T04:22:19.569Z,2444
2017-07-08T04:23:35.287Z,2516
2017-07-08T04:24:50.742Z,2648
2017-07-08T04:26:05.815Z,2780
2017-07-08T04:27:21.214Z,2972
2017-07-08T04:28:37.124Z,3260
2017-07-08T04:29:52.605Z,3460
2017-07-08T04:31:08.224Z,3568
2017-07-08T04:33:51.645Z,3620
2017-07-08T04:35:07.110Z,3656
2017-07-08T04:36:22.525Z,3688
2017-07-08T04:37:37.998Z,3816
2017-07-08T04:38:52.530Z,3956
2017-07-08T04:40:08.003Z,4104
2017-07-08T04:41:22.199Z,4228
2017-07-08T04:42:37.629Z,4288
2017-07-08T04:43:53.320Z,4212
2017-07-08T04:45:08.915Z,4128
2017-07-08T04:46:24.343Z,4268
2017-07-08T04:47:39.846Z,4636
2017-07-08T04:48:55.661Z,5100
2017-07-08T04:50:11.301Z,5344
2017-07-08T04:51:26.304Z,5452
2017-07-08T04:52:41.713Z,5632
2017-07-08T04:53:57.652Z,5752
2017-07-08T04:55:13.068Z,5784
2017-07-08T04:56:28.623Z,5772
2017-07-08T04:57:44.030Z,5760
2017-07-08T04:58:59.707Z,5688
2017-07-08T05:00:15.130Z,5784
2017-07-08T05:01:30.552Z,5856
2017-07-08T05:02:46.068Z,6160
2017-07-08T05:04:01.778Z,6364
2017-07-08T05:05:17.357Z,6092
2017-07-08T05:06:32.815Z,5820
2017-07-08T05:07:48.258Z,5680
2017-07-08T05:09:03.970Z,5416
2017-07-08T05:10:19.393Z,4748
2017-07-08T05:11:33.477Z,4272
2017-07-08T05:12:47.477Z,4228
2017-07-08T05:14:03.368Z,4428
2017-07-08T05:15:18.884Z,4668
2017-07-08T05:16:34.301Z,4852
2017-07-08T05:18:20.568Z,4844
2017-07-08T05:19:49.848Z,5016
2017-07-08T05:21:05.342Z,5136
2017-07-08T05:22:19.528Z,5380
2017-07-08T05:23:34.950Z,5792
2017-07-08T05:24:49.325Z,6256
2017-07-08T05:26:03.259Z,6676
2017-07-08T05:27:18.737Z,7004
2017-07-08T05:28:32.880Z,7292
2017-07-08T05:29:48.574Z,7364
2017-07-08T05:31:02.714Z,7116
2017-07-08T05:32:18.205Z,6784
2017-07-08T05:33:33.658Z,6488
2017-07-08T05:34:48.319Z,6224
2017-07-08T05:36:03.741Z,6148
2017-07-08T05:37:17.730Z,6284
2017-07-08T05:38:33.202Z,6120
2017-07-08T05:39:49.079Z,5736
2017-07-08T05:41:04.664Z,5384
2017-07-08T05:42:20.070Z,5212
2017-07-08T05:43:35.675Z,4992
2017-07-08T05:44:51.049Z,4856
2017-07-08T05:46:05.203Z,5040
2017-07-08T05:47:20.623Z,5428
2017-07-08T05:48:36.057Z,5612
2017-07-08T05:49:51.706Z,5328
2017-07-08T05:51:07.362Z,5152
2017-07-08T05:52:22.787Z,5384
2017-07-08T05:53:38.391Z,5720
2017-07-08T05:54:52.911Z,6376
2017-07-08T05:56:08.349Z,7116
2017-07-08T05:57:23.759Z,7728
2017-07-08T05:58:39.377Z,8144
2017-07-08T05:59:55.015Z,8456
2017-07-08T06:01:10.455Z,8532
2017-07-08T06:02:25.913Z,8700
2017-07-08T06:03:41.313Z,8584
2017-07-08T06:05:27.828Z,8848
2017-07-08T06:06:41.963Z,8996
2017-07-08T06:08:28.293Z,8740
2017-07-08T06:09:43.730Z,8536
2017-07-08T06:10:59.558Z,8172
2017-07-08T06:12:14.987Z,8244
2017-07-08T06:13:30.427Z,8484
2017-07-08T06:14:45.853Z,8560
2017-07-08T06:16:00.257Z,8436
2017-07-08T06:17:15.681Z,8632
2017-07-08T06:18:31.123Z,9000
2017-07-08T06:19:46.147Z,9204
2017-07-08T06:21:01.870Z,9284
2017-07-08T06:22:15.993Z,8656
2017-07-08T06:23:31.520Z,8804
2017-07-08T06:24:46.999Z,9140
2017-07-08T06:26:02.716Z,8884
2017-07-08T06:27:18.199Z,8380
2017-07-08T06:28:33.672Z,7476
2017-07-08T06:29:49.110Z,6732
2017-07-08T06:31:04.871Z,6700
2017-07-08T06:32:19.972Z,6580
2017-07-08T06:33:35.428Z,6348
2017-07-08T06:34:51.007Z,6044
2017-07-08T06:36:06.741Z,5880
2017-07-08T06:37:20.830Z,5816
2017-07-08T06:38:36.335Z,5520
2017-07-08T06:39:51.789Z,5464
2017-07-08T06:41:06.249Z,5580
2017-07-08T06:42:21.656Z,5828
2017-07-08T06:43:37.147Z,6012
2017-07-08T06:44:52.778Z,5888
2017-07-08T06:46:08.456Z,5564
2017-07-08T06:47:23.901Z,5744
2017-07-08T06:48:39.329Z,5992
2017-07-08T06:49:54.788Z,5260
2017-07-08T06:51:23.952Z,3812
2017-07-08T06:52:39.377Z,3356
2017-07-08T06:53:54.838Z,3268
2017-07-08T06:55:09.044Z,3100
2017-07-08T06:56:24.736Z,3800
2017-07-08T06:57:40.214Z,3656
2017-07-08T06:58:55.722Z,3620
2017-07-08T07:00:11.176Z,3748
2017-07-08T07:01:26.872Z,4208
2017-07-08T07:02:42.486Z,5868
2017-07-08T07:03:58.090Z,6556
2017-07-08T07:05:13.539Z,7672
2017-07-08T07:06:29.466Z,9344
2017-07-08T07:07:45.056Z,11360
2017-07-08T07:09:00.493Z,13144
2017-07-08T07:10:14.692Z,15568
2017-07-08T07:11:29.036Z,17184
2017-07-08T07:12:44.491Z,17920
2017-07-08T07:13:59.960Z,16576
2017-07-08T07:15:15.393Z,14704
2017-07-08T07:16:31.124Z,14456
2017-07-08T07:17:46.574Z,15092
2017-07-08T07:19:01.968Z,14820
2017-07-08T07:20:17.441Z,14852
2017-07-08T07:21:33.298Z,14964
2017-07-08T07:22:48.761Z,13084
2017-07-08T07:24:04.212Z,12708
2017-07-08T07:25:18.091Z,11624
2017-07-08T07:26:33.808Z,7340
2017-07-08T07:27:49.287Z,5268
2017-07-08T07:29:03.719Z,5048
2017-07-08T07:30:17.698Z,5576
2017-07-08T07:31:33.424Z,5056
2017-07-08T07:32:48.933Z,5396
2017-07-08T07:34:04.404Z,6036
2017-07-08T07:35:19.834Z,9416
2017-07-08T07:36:34.238Z,11124
2017-07-08T07:37:49.691Z,11548
2017-07-08T07:39:05.194Z,12488
2017-07-08T07:40:20.719Z,12588
2017-07-08T07:41:37.249Z,12512
2017-07-08T07:42:52.841Z,12752
2017-07-08T07:44:08.343Z,13020
2017-07-08T07:45:23.793Z,12964
2017-07-08T07:46:39.520Z,12560
2017-07-08T07:47:54.835Z,11848
2017-07-08T07:49:10.269Z,10492
2017-07-08T07:50:25.734Z,9944
2017-07-08T07:51:41.347Z,9224
2017-07-08T07:52:56.804Z,8676
2017-07-08T07:54:12.737Z,8456
2017-07-08T07:55:28.224Z,8440
2017-07-08T07:56:43.685Z,8392
2017-07-08T07:57:59.067Z,8268
2017-07-08T07:59:13.494Z,8004
2017-07-08T08:00:29.203Z,7632
2017-07-08T08:01:43.163Z,7436
2017-07-08T08:02:58.583Z,7392
2017-07-08T08:04:12.984Z,7376
2017-07-08T08:05:28.671Z,7608
2017-07-08T08:06:44.134Z,8436
2017-07-08T08:07:59.929Z,9700
2017-07-08T08:09:15.638Z,10712
2017-07-08T08:10:31.174Z,10852
2017-07-08T08:11:46.650Z,10484
2017-07-08T08:13:02.154Z,9968
2017-07-08T08:14:17.838Z,9500
2017-07-08T08:15:31.835Z,9496
2017-07-08T08:16:47.336Z,9828
2017-07-08T08:18:02.744Z,9976
2017-07-08T08:19:18.516Z,9924
2017-07-08T08:20:33.629Z,9664
2017-07-08T08:21:49.082Z,9476
2017-07-08T08:23:04.739Z,9608
2017-07-08T08:24:20.623Z,9836
2017-07-08T08:25:36.079Z,10220
2017-07-08T08:26:51.514Z,10448
2017-07-08T08:28:07.063Z,10260
2017-07-08T08:29:22.894Z,9824
2017-07-08T08:30:37.033Z,9532
2017-07-08T08:31:52.481Z,9340
2017-07-08T08:33:08.004Z,9224
2017-07-08T08:34:23.721Z,9388
2017-07-08T08:35:39.352Z,9736
2017-07-08T08:36:54.852Z,10132
2017-07-08T08:38:10.632Z,10348
2017-07-08T08:39:26.517Z,10404
2017-07-08T08:40:40.601Z,10452
2017-07-08T08:41:54.769Z,10492
2017-07-08T08:43:08.940Z,10432
2017-07-08T08:44:24.672Z,10244
2017-07-08T08:45:40.157Z,10120
2017-07-08T08:46:55.804Z,10288
2017-07-08T08:48:11.286Z,10524
2017-07-08T08:49:26.966Z,10232
2017-07-08T08:50:42.461Z,9816
2017-07-08T08:51:57.922Z,9776
2017-07-08T08:53:13.307Z,10044
2017-07-08T08:54:29.030Z,10344
2017-07-08T08:55:44.513Z,10304
2017-07-08T08:56:59.992Z,10372
2017-07-08T08:58:15.436Z,10608
2017-07-08T08:59:31.140Z,10920
2017-07-08T09:00:46.574Z,11476
2017-07-08T09:02:02.011Z,11848
2017-07-08T09:03:17.519Z,12200
2017-07-08T09:04:32.876Z,12908
2017-07-08T09:05:46.995Z,14308
2017-07-08T09:07:02.725Z,16128
2017-07-08T09:08:18.205Z,17184
2017-07-08T09:09:33.953Z,17792
2017-07-08T09:10:48.160Z,18912
2017-07-08T09:12:03.606Z,20576
2017-07-08T09:13:19.012Z,20608
2017-07-08T09:14:33.411Z,22048
2017-07-08T09:15:48.882Z,21920
2017-07-08T09:17:04.422Z,21024
2017-07-08T09:18:19.546Z,19392
2017-07-08T09:19:35.259Z,19296
2017-07-08T09:20:50.771Z,20256
2017-07-08T09:22:04.752Z,20512
2017-07-08T09:23:20.241Z,19584
2017-07-08T09:24:35.971Z,16352
2017-07-08T09:25:51.473Z,16256
2017-07-08T09:27:06.057Z,17824
2017-07-08T09:28:21.482Z,18272
2017-07-08T09:29:37.186Z,18880
2017-07-08T09:30:52.605Z,18528
2017-07-08T09:32:08.086Z,19648
2017-07-08T09:33:22.265Z,19552
2017-07-08T09:34:38.019Z,18944
2017-07-08T09:35:53.429Z,18624
2017-07-08T09:37:08.903Z,19040
2017-07-08T09:39:53.648Z,17408
2017-07-08T09:41:09.206Z,16992
2017-07-08T09:42:24.731Z,19968
2017-07-08T09:43:40.127Z,21120
2017-07-08T09:44:54.570Z,22560
2017-07-08T09:46:08.763Z,23584
2017-07-08T09:47:21.575Z,24352
2017-07-08T09:48:35.713Z,23552
2017-07-08T09:49:51.496Z,23584
2017-07-08T09:51:07.081Z,24512
2017-07-08T09:52:22.557Z,25952
2017-07-08T09:53:38.211Z,24800
2017-07-08T09:54:54.326Z,22656
2017-07-08T09:56:09.842Z,16128
2017-07-08T09:57:25.339Z,15552
2017-07-08T09:58:41.187Z,15840
2017-07-08T09:59:57.117Z,13708
2017-07-08T10:01:12.545Z,13400
2017-07-08T10:02:28.031Z,14956
2017-07-08T10:03:43.739Z,17632
2017-07-08T10:04:59.416Z,22464
2017-07-08T10:06:14.927Z,29792
2017-07-08T10:07:29.245Z,28320
2017-07-08T10:08:44.812Z,22016
2017-07-08T10:10:00.465Z,20832
2017-07-08T10:11:15.930Z,23264
2017-07-08T10:12:31.402Z,26432
2017-07-08T10:13:45.562Z,26688
2017-07-08T10:15:01.272Z,25664
2017-07-08T10:16:17.004Z,24928
2017-07-08T10:17:32.498Z,27808
2017-07-08T10:18:46.673Z,33312
2017-07-08T10:20:33.254Z,108416
2017-07-08T10:21:48.675Z,53504
2017-07-08T10:23:03.863Z,126336
2017-07-08T10:24:19.657Z,87584
2017-07-08T10:25:35.484Z,40160
2017-07-08T10:26:50.913Z,29728
2017-07-08T10:28:05.058Z,19840
2017-07-08T10:29:20.481Z,25120
2017-07-08T10:30:36.213Z,68672
2017-07-08T10:33:20.946Z,80192
2017-07-08T10:34:36.443Z,59968
2017-07-08T10:35:52.222Z,65728
2017-07-08T10:37:07.658Z,51392
2017-07-08T10:38:23.173Z,35360
2017-07-08T10:39:38.313Z,33888
2017-07-08T10:40:54.075Z,22880
2017-07-08T10:42:09.615Z,89952
2017-07-08T10:43:25.053Z,77792
2017-07-08T10:44:40.577Z,73632
2017-07-08T10:45:56.501Z,84896
2017-07-08T10:47:11.975Z,84576
2017-07-08T10:48:27.450Z,29920
2017-07-08T10:49:43.043Z,29728
2017-07-08T10:50:59.062Z,49984
2017-07-08T10:52:14.580Z,74720
2017-07-08T10:53:30.055Z,106368
2017-07-08T10:54:45.494Z,108128
2017-07-08T10:56:01.189Z,34912
2017-07-08T10:57:16.858Z,33760
2017-07-08T10:58:33.165Z,131520
2017-07-08T10:59:48.835Z,143040
2017-07-08T11:01:03.334Z,113344
2017-07-08T11:02:17.519Z,111456
2017-07-08T11:03:31.567Z,101728
2017-07-08T11:04:45.627Z,123296
2017-07-08T11:06:01.554Z,26240
2017-07-08T11:07:17.039Z,116768
2017-07-08T11:08:32.155Z,101824
2017-07-08T11:09:47.660Z,124608
2017-07-08T11:11:17.449Z,129376
2017-07-08T11:12:32.950Z,125504
2017-07-08T11:13:48.471Z,131872
2017-07-08T11:15:03.942Z,125024
2017-07-08T11:16:19.797Z,105536
2017-07-08T11:17:35.288Z,94016
2017-07-08T11:18:49.355Z,126528
2017-07-08T11:20:05.084Z,120480
2017-07-08T11:21:20.801Z,128000
2017-07-08T11:22:49.860Z,107712
2017-07-08T11:24:03.975Z,125088
2017-07-08T11:25:19.458Z,129312
2017-07-08T11:26:35.201Z,102752
2017-07-08T11:27:49.331Z,98944
2017-07-08T11:29:04.901Z,120320
2017-07-08T11:30:19.167Z,137184
2017-07-08T11:31:33.985Z,99104
2017-07-08T11:32:49.691Z,79360
2017-07-08T11:34:05.168Z,96544
2017-07-08T11:35:20.728Z,129184
2017-07-08T11:36:36.451Z,118112
2017-07-08T11:37:51.945Z,84992
2017-07-08T11:39:07.418Z,101696
2017-07-08T11:40:23.140Z,116192
2017-07-08T11:41:38.855Z,93600
2017-07-08T11:43:22.621Z,94208
2017-07-08T11:44:38.109Z,134176
2017-07-08T11:45:53.702Z,134816
2017-07-08T11:47:08.263Z,105152
2017-07-08T11:48:22.640Z,97216
2017-07-08T11:49:38.386Z,112896
2017-07-08T11:50:53.836Z,100800
2017-07-08T11:52:09.614Z,82400
2017-07-08T11:53:23.846Z,79360
2017-07-08T11:54:39.361Z,111968
2017-07-08T11:55:54.813Z,131104
2017-07-08T11:57:10.753Z,102336
2017-07-08T11:58:26.286Z,78560
2017-07-08T11:59:41.838Z,92832
2017-07-08T12:00:57.412Z,100320
2017-07-08T12:02:13.128Z,91296
2017-07-08T12:03:28.628Z,96448
2017-07-08T12:04:44.162Z,107616
2017-07-08T12:05:59.667Z,107840
2017-07-08T12:07:15.435Z,97088
2017-07-08T12:08:29.574Z,94080
2017-07-08T12:09:43.985Z,87488
2017-07-08T12:10:59.685Z,66592
2017-07-08T12:12:15.469Z,64512
2017-07-08T12:13:30.985Z,98272
2017-07-08T12:14:46.501Z,123808
2017-07-08T12:16:02.040Z,111424
2017-07-08T12:17:17.777Z,75616
2017-07-08T12:18:31.942Z,66304
2017-07-08T12:19:47.444Z,78560
2017-07-08T12:21:03.462Z,83488
2017-07-08T12:22:19.436Z,81280
2017-07-08T12:23:34.907Z,87520
2017-07-08T12:24:50.374Z,103232
2017-07-08T12:26:04.772Z,109440
2017-07-08T12:27:20.517Z,98368
2017-07-08T12:28:36.020Z,93664
2017-07-08T12:29:51.280Z,87872
2017-07-08T12:31:06.417Z,76704
2017-07-08T12:32:21.299Z,95328
2017-07-08T12:33:36.793Z,117792
2017-07-08T12:34:52.295Z,120128
2017-07-08T12:36:07.812Z,98240
2017-07-08T12:37:23.657Z,73024
2017-07-08T12:38:39.358Z,81152
2017-07-08T12:39:54.870Z,101504
2017-07-08T12:41:10.399Z,113536
2017-07-08T12:42:26.207Z,104160
2017-07-08T12:43:41.990Z,95584
2017-07-08T12:44:57.486Z,110976
2017-07-08T12:46:13.422Z,102400
2017-07-08T12:47:29.208Z,88960
2017-07-08T12:48:44.880Z,83968
2017-07-08T12:50:00.334Z,90816
2017-07-08T12:51:15.753Z,94400
2017-07-08T12:52:31.952Z,84032
2017-07-08T12:53:47.628Z,80352
2017-07-08T12:55:03.212Z,91392
2017-07-08T12:56:18.703Z,103552
2017-07-08T12:57:34.429Z,95360
2017-07-08T12:58:49.891Z,76768
2017-07-08T13:00:05.387Z,78880
2017-07-08T13:01:20.871Z,98048
2017-07-08T13:02:36.817Z,95552
2017-07-08T13:03:52.358Z,76544
2017-07-08T13:05:07.861Z,75808
2017-07-08T13:06:23.483Z,108800
2017-07-08T13:07:39.252Z,131488
2017-07-08T13:08:53.676Z,113312
2017-07-08T13:10:09.204Z,97504
2017-07-08T13:11:24.679Z,110176
2017-07-08T13:12:40.424Z,122720
2017-07-08T13:13:55.970Z,104576
2017-07-08T13:15:11.447Z,84000
2017-07-08T13:16:25.530Z,103040
2017-07-08T13:17:41.528Z,119008
2017-07-08T13:18:56.994Z,110432
2017-07-08T13:20:12.725Z,102656
2017-07-08T13:21:28.413Z,111136
2017-07-08T13:22:42.717Z,113280
2017-07-08T13:23:58.167Z,103840
2017-07-08T13:25:14.055Z,96512
2017-07-08T13:26:29.927Z,44160
2017-07-08T13:27:45.669Z,128896
2017-07-08T13:29:01.143Z,112992
2017-07-08T13:30:16.841Z,49472
2017-07-08T13:31:31.073Z,82880
2017-07-08T13:32:46.934Z,70240
2017-07-08T13:34:01.344Z,88576
2017-07-08T13:35:16.813Z,102304
2017-07-08T13:36:32.324Z,14672
2017-07-08T13:37:48.055Z,16840
2017-07-08T13:39:03.847Z,84736
2017-07-08T13:40:19.324Z,76704
2017-07-08T13:41:34.820Z,69920
2017-07-08T13:42:50.647Z,83584
2017-07-08T13:44:06.293Z,20064
2017-07-08T13:45:21.797Z,80768
2017-07-08T13:46:37.316Z,41376
2017-07-08T13:47:53.066Z,44544
2017-07-08T13:49:08.665Z,98784
2017-07-08T13:51:53.441Z,93984
2017-07-08T13:53:09.124Z,25664
2017-07-08T13:54:24.723Z,33376
2017-07-08T13:55:38.958Z,95232
2017-07-08T13:56:54.498Z,122432
2017-07-08T13:58:10.235Z,102112
2017-07-08T13:59:25.846Z,78752
2017-07-08T14:00:41.339Z,72448
2017-07-08T14:01:56.883Z,82080
2017-07-08T14:03:12.704Z,92224
2017-07-08T14:04:28.421Z,84992
2017-07-08T14:05:43.912Z,76480
2017-07-08T14:06:59.078Z,85056
2017-07-08T14:08:14.807Z,85120
2017-07-08T14:09:30.372Z,76352
2017-07-08T14:10:45.817Z,60448
2017-07-08T14:12:01.268Z,78112
2017-07-08T14:13:17.047Z,83392
2017-07-08T14:14:32.562Z,72832
2017-07-08T14:15:48.058Z,75360
2017-07-08T14:17:03.568Z,76576
2017-07-08T14:18:19.358Z,74624
2017-07-08T14:19:34.903Z,76832
2017-07-08T14:20:50.494Z,79968
2017-07-08T14:22:06.195Z,58208
2017-07-08T14:23:21.879Z,68768
2017-07-08T14:24:38.557Z,70336
2017-07-08T14:25:54.054Z,69440
2017-07-08T14:27:09.392Z,75072
2017-07-08T14:28:25.165Z,88096
2017-07-08T14:29:40.712Z,97440
2017-07-08T14:30:56.206Z,83840
2017-07-08T14:32:11.691Z,72736
2017-07-08T14:33:27.804Z,67648
2017-07-08T14:34:43.366Z,65888
2017-07-08T14:35:58.851Z,63392
2017-07-08T14:37:12.694Z,63616
2017-07-08T14:38:28.412Z,65408
2017-07-08T14:39:41.301Z,60672
2017-07-08T14:40:57.071Z,54784
2017-07-08T14:42:12.602Z,58112
2017-07-08T14:43:28.357Z,70304
2017-07-08T14:44:43.945Z,90848
2017-07-08T14:45:59.450Z,77280
2017-07-08T14:47:13.630Z,51872
2017-07-08T14:48:29.801Z,58016
2017-07-08T14:49:45.275Z,93920
2017-07-08T14:51:00.990Z,101824
2017-07-08T14:52:47.335Z,69728
2017-07-08T14:54:01.775Z,10016
2017-07-08T14:55:17.251Z,9848
2017-07-08T14:56:32.689Z,71520
2017-07-08T14:57:48.221Z,75232
2017-07-08T14:59:04.312Z,71872
2017-07-08T15:00:19.817Z,15044
2017-07-08T15:01:35.375Z,61952
2017-07-08T15:02:50.819Z,43648
2017-07-08T15:04:06.783Z,52864
2017-07-08T15:05:22.259Z,77856
2017-07-08T15:06:37.778Z,65312
2017-07-08T15:07:52.925Z,29056
2017-07-08T15:09:08.624Z,12176
2017-07-08T15:10:24.114Z,17632
2017-07-08T15:11:39.653Z,15992
2017-07-08T15:12:55.172Z,17632
2017-07-08T15:14:10.985Z,16092
2017-07-08T15:15:26.597Z,15096
2017-07-08T15:16:55.502Z,11660
2017-07-08T15:18:10.977Z,9516
2017-07-08T15:19:26.348Z,8976
2017-07-08T15:20:41.819Z,9888
2017-07-08T15:21:57.585Z,12064
2017-07-08T15:23:26.527Z,16416
2017-07-08T15:24:42.272Z,16608
2017-07-08T15:25:57.758Z,17504
2017-07-08T15:27:11.980Z,17312
2017-07-08T15:28:26.063Z,17568
2017-07-08T15:29:41.832Z,16576
2017-07-08T15:30:57.401Z,15052
2017-07-08T15:32:13.070Z,14628
2017-07-08T15:33:28.547Z,14424
2017-07-08T15:34:44.298Z,14304
2017-07-08T15:35:59.820Z,13572
2017-07-08T15:37:15.311Z,12872
2017-07-08T15:38:30.911Z,13008
2017-07-08T15:39:46.659Z,13864
2017-07-08T15:41:02.377Z,14424
2017-07-08T15:42:18.020Z,14368
2017-07-08T15:43:33.478Z,12804
2017-07-08T15:44:49.255Z,11180
2017-07-08T15:46:04.738Z,10684
2017-07-08T15:47:20.241Z,10644
2017-07-08T15:48:35.764Z,8896
2017-07-08T15:49:51.566Z,8812
2017-07-08T15:51:07.272Z,10232
2017-07-08T15:52:22.769Z,10712
2017-07-08T15:53:38.259Z,10688
2017-07-08T15:54:54.010Z,11204
2017-07-08T15:56:09.728Z,9568
2017-07-08T15:57:25.236Z,8136
2017-07-08T15:58:40.926Z,8752
2017-07-08T15:59:56.722Z,8736
2017-07-08T16:01:12.219Z,8840
2017-07-08T16:02:27.774Z,8664
2017-07-08T16:03:43.260Z,9016
2017-07-08T16:04:59.075Z,9132
2017-07-08T16:06:14.679Z,9232
2017-07-08T16:07:29.973Z,9268
2017-07-08T16:08:45.465Z,9720
2017-07-08T16:10:01.721Z,9288
2017-07-08T16:11:30.973Z,8976
2017-07-08T16:12:46.637Z,8580
2017-07-08T16:14:02.464Z,8112
2017-07-08T16:15:18.266Z,7868
2017-07-08T16:16:33.777Z,7544
2017-07-08T16:17:49.299Z,7652
2017-07-08T16:19:04.800Z,8044
2017-07-08T16:20:19.557Z,7968
2017-07-08T16:21:35.054Z,7852
2017-07-08T16:22:49.313Z,8720
2017-07-08T16:24:04.929Z,9980
2017-07-08T16:25:20.650Z,10696
2017-07-08T16:26:36.381Z,10512
2017-07-08T16:27:51.814Z,10836
2017-07-08T16:29:07.241Z,11040
2017-07-08T16:30:21.579Z,10684
2017-07-08T16:31:37.497Z,10640
2017-07-08T16:32:53.198Z,10496
2017-07-08T16:34:08.713Z,9964
2017-07-08T16:35:24.437Z,9500
2017-07-08T16:36:40.041Z,9332
2017-07-08T16:38:09.432Z,8848
2017-07-08T16:39:24.950Z,8272
2017-07-08T16:40:40.749Z,7336
2017-07-08T16:41:56.330Z,6900
2017-07-08T16:43:12.031Z,6720
2017-07-08T16:44:27.521Z,6440
2017-07-08T16:45:43.223Z,6376
2017-07-08T16:46:57.260Z,6620
2017-07-08T16:48:12.931Z,6856
2017-07-08T16:49:28.411Z,6724
2017-07-08T16:50:44.332Z,6244
2017-07-08T16:51:59.847Z,6252
2017-07-08T16:53:15.597Z,6400
2017-07-08T16:54:31.430Z,5920
2017-07-08T16:55:47.333Z,5208
2017-07-08T16:57:02.971Z,4752
2017-07-08T16:58:18.458Z,4796